createdAt,value
2023-03-29T00:00:11.436Z,18.90
2023-03-29T00:02:59.434Z,20.10
2023-03-29T00:05:27.359Z,16.30
2023-03-29T00:08:01.891Z,20.60
2023-03-29T00:10:32.870Z,24.00
2023-03-29T00:13:01.840Z,25.70
2023-03-29T00:15:29.467Z,29.60
2023-03-29T00:17:57.528Z,27.70
2023-03-29T00:20:25.564Z,30.80
2023-03-29T00:22:53.213Z,32.50
2023-03-29T00:25:20.893Z,29.60
2023-03-29T00:27:48.531Z,35.00
2023-03-29T00:30:16.592Z,33.40
2023-03-29T00:32:44.361Z,49.80
2023-03-29T00:35:12.356Z,40.30
2023-03-29T00:37:41.397Z,42.70
2023-03-29T00:40:15.429Z,37.70
2023-03-29T00:42:46.547Z,33.40
2023-03-29T00:45:22.372Z,30.30
2023-03-29T00:48:06.146Z,31.60
2023-03-29T00:50:49.332Z,46.80
2023-03-29T00:53:38.505Z,42.70
2023-03-29T00:56:14.196Z,41.90
2023-03-29T00:59:02.504Z,34.90
2023-03-29T01:01:45.794Z,31.90
2023-03-29T01:04:31.024Z,25.70
2023-03-29T01:07:25.527Z,22.30
2023-03-29T01:10:15.644Z,21.60
2023-03-29T01:12:51.364Z,26.50
2023-03-29T01:15:26.464Z,25.70
2023-03-29T01:17:58.117Z,30.00
2023-03-29T01:20:46.016Z,26.20
2023-03-29T01:24:06.722Z,24.70
2023-03-29T01:26:55.229Z,23.00
2023-03-29T01:29:38.631Z,22.30
2023-03-29T01:32:17.473Z,21.10
2023-03-29T01:35:10.300Z,16.60
2023-03-29T01:37:49.765Z,18.80
2023-03-29T01:40:17.526Z,18.70
2023-03-29T01:43:09.704Z,18.30
2023-03-29T01:45:54.388Z,14.80
2023-03-29T01:48:36.486Z,17.20
2023-03-29T01:51:16.159Z,14.90
2023-03-29T01:54:01.349Z,18.80
2023-03-29T01:56:33.331Z,15.30
2023-03-29T01:59:08.335Z,20.40
2023-03-29T02:01:42.767Z,18.80
2023-03-29T02:04:16.996Z,18.20
2023-03-29T02:06:46.390Z,16.00
2023-03-29T02:09:14.873Z,22.60
2023-03-29T02:11:45.411Z,18.60
2023-03-29T02:14:13.921Z,18.20
2023-03-29T02:16:41.554Z,17.20
2023-03-29T02:19:10.741Z,17.90
2023-03-29T02:22:09.513Z,16.70
2023-03-29T02:24:40.932Z,15.40
2023-03-29T02:27:08.689Z,19.70
2023-03-29T02:29:36.312Z,18.10
2023-03-29T02:32:43.450Z,18.10
2023-03-29T02:35:19.578Z,14.90
2023-03-29T02:37:54.457Z,17.40
2023-03-29T02:40:26.048Z,15.00
2023-03-29T02:42:56.271Z,18.70
2023-03-29T02:45:26.166Z,20.10
2023-03-29T02:47:58.500Z,18.20
2023-03-29T02:50:36.303Z,20.70
2023-03-29T02:53:16.104Z,17.00
2023-03-29T02:55:46.197Z,23.10
2023-03-29T02:58:15.680Z,19.10
2023-03-29T03:00:48.830Z,19.90
2023-03-29T03:03:16.996Z,19.00
2023-03-29T03:05:44.960Z,18.90
2023-03-29T03:08:13.351Z,16.40
2023-03-29T03:10:41.677Z,22.30
2023-03-29T03:13:09.379Z,30.70
2023-03-29T03:15:37.363Z,24.60
2023-03-29T03:18:05.254Z,30.60
2023-03-29T03:20:33.482Z,33.10
2023-03-29T03:23:03.364Z,30.90
2023-03-29T03:25:31.661Z,30.40
2023-03-29T03:27:59.460Z,28.90
2023-03-29T03:30:28.854Z,25.30
2023-03-29T03:32:56.575Z,26.80
2023-03-29T03:35:24.214Z,21.40
2023-03-29T03:37:51.961Z,25.60
2023-03-29T03:40:20.745Z,31.10
2023-03-29T03:42:48.372Z,32.20
2023-03-29T03:45:16.635Z,37.20
2023-03-29T03:47:44.336Z,33.50
2023-03-29T03:50:12.026Z,25.60
2023-03-29T03:52:39.703Z,26.90
2023-03-29T03:55:08.400Z,22.40
2023-03-29T03:57:39.869Z,25.90
2023-03-29T04:00:17.712Z,25.10
2023-03-29T04:02:47.296Z,26.20
2023-03-29T04:05:17.056Z,20.90
2023-03-29T04:07:44.671Z,24.30
2023-03-29T04:10:12.781Z,27.90
2023-03-29T04:12:40.750Z,43.70
2023-03-29T04:15:10.532Z,38.90
2023-03-29T04:17:38.545Z,42.20
2023-03-29T04:20:11.662Z,45.80
2023-03-29T04:22:40.374Z,43.60
2023-03-29T04:25:10.378Z,43.70
2023-03-29T04:27:38.964Z,34.80
2023-03-29T04:30:08.154Z,46.50
2023-03-29T04:32:36.560Z,58.60
2023-03-29T04:35:05.844Z,60.40
2023-03-29T04:37:33.900Z,59.30
2023-03-29T04:40:01.512Z,65.60
2023-03-29T04:42:29.397Z,87.90
2023-03-29T04:44:57.388Z,94.40
2023-03-29T04:47:25.185Z,87.10
2023-03-29T04:49:53.228Z,42.70
2023-03-29T04:52:23.192Z,46.20
2023-03-29T04:54:52.164Z,28.50
2023-03-29T04:57:19.884Z,44.00
2023-03-29T04:59:47.531Z,34.90
2023-03-29T05:02:15.475Z,29.30
2023-03-29T05:04:43.131Z,42.00
2023-03-29T05:07:12.952Z,34.60
2023-03-29T05:09:41.890Z,41.20
2023-03-29T05:12:09.950Z,36.10
2023-03-29T05:14:37.718Z,37.30
2023-03-29T05:17:06.507Z,35.10
2023-03-29T05:19:36.529Z,34.50
2023-03-29T05:22:04.167Z,35.70
2023-03-29T05:24:31.826Z,34.80
2023-03-29T05:26:59.571Z,25.40
2023-03-29T05:29:27.372Z,29.90
2023-03-29T05:31:55.019Z,18.10
2023-03-29T05:34:22.755Z,28.60
2023-03-29T05:36:50.728Z,19.00
2023-03-29T05:39:18.414Z,15.00
2023-03-29T05:41:46.657Z,18.70
2023-03-29T05:44:14.351Z,16.80
2023-03-29T05:46:41.974Z,17.00
2023-03-29T05:49:09.764Z,17.30
2023-03-29T05:51:37.521Z,17.70
2023-03-29T05:54:05.275Z,15.30
2023-03-29T05:56:32.913Z,14.70
2023-03-29T05:59:02.108Z,18.20
2023-03-29T06:01:30.780Z,25.20
2023-03-29T06:03:58.794Z,30.80
2023-03-29T06:06:26.678Z,36.60
2023-03-29T06:08:54.936Z,30.80
2023-03-29T06:11:24.391Z,26.40
2023-03-29T06:13:52.936Z,24.20
2023-03-29T06:16:20.728Z,20.30
2023-03-29T06:18:48.778Z,27.30
2023-03-29T06:21:16.972Z,19.30
2023-03-29T06:23:45.179Z,18.60
2023-03-29T06:26:13.062Z,20.00
2023-03-29T06:28:40.705Z,19.80
2023-03-29T06:31:10.317Z,17.10
2023-03-29T06:33:38.152Z,13.50
2023-03-29T06:36:06.376Z,12.70
2023-03-29T06:38:34.182Z,15.50
2023-03-29T06:41:08.787Z,17.00
2023-03-29T06:43:37.728Z,15.40
2023-03-29T06:46:11.777Z,9.90
2023-03-29T06:48:41.238Z,12.50
2023-03-29T06:51:09.006Z,12.50
2023-03-29T06:53:36.750Z,10.70
2023-03-29T06:56:09.335Z,10.10
2023-03-29T06:58:37.928Z,9.90
2023-03-29T07:01:07.073Z,9.40
2023-03-29T07:03:36.132Z,13.90
2023-03-29T07:06:10.011Z,13.60
2023-03-29T07:08:47.407Z,12.90
2023-03-29T07:11:17.966Z,10.30
2023-03-29T07:13:46.244Z,9.60
2023-03-29T07:16:14.142Z,13.70
2023-03-29T07:18:44.202Z,9.90
2023-03-29T07:21:13.159Z,9.40
2023-03-29T07:23:41.024Z,8.80
2023-03-29T07:26:09.431Z,10.60
2023-03-29T07:28:37.884Z,7.30
2023-03-29T07:31:12.027Z,11.40
2023-03-29T07:33:40.054Z,8.40
2023-03-29T07:36:08.570Z,12.00
2023-03-29T07:38:36.963Z,10.70
2023-03-29T07:41:06.857Z,9.80
2023-03-29T07:43:34.862Z,9.20
2023-03-29T07:46:06.991Z,8.10
2023-03-29T07:48:37.124Z,7.00
2023-03-29T07:51:06.402Z,10.00
2023-03-29T07:53:34.136Z,6.30
2023-03-29T07:56:01.808Z,5.20
2023-03-29T07:58:29.675Z,5.60
2023-03-29T08:01:02.860Z,7.90
2023-03-29T08:03:30.793Z,8.00
2023-03-29T08:06:03.129Z,6.10
2023-03-29T08:08:30.796Z,6.70
2023-03-29T08:10:58.452Z,6.50
2023-03-29T08:13:26.240Z,5.10
2023-03-29T08:15:53.914Z,7.20
2023-03-29T08:18:21.829Z,6.70
2023-03-29T08:20:51.772Z,4.90
2023-03-29T08:23:19.460Z,4.00
2023-03-29T08:25:47.233Z,8.80
2023-03-29T08:28:14.856Z,8.70
2023-03-29T08:30:42.489Z,8.30
2023-03-29T08:33:10.268Z,6.80
2023-03-29T08:35:37.954Z,5.90
2023-03-29T08:38:05.666Z,7.20
2023-03-29T08:40:34.410Z,15.70
2023-03-29T08:43:15.856Z,8.40
2023-03-29T08:46:05.755Z,5.10
2023-03-29T08:48:53.729Z,9.50
2023-03-29T08:51:38.206Z,9.70
2023-03-29T08:54:14.992Z,6.70
2023-03-29T08:56:46.431Z,6.70
2023-03-29T08:59:30.654Z,9.70
2023-03-29T09:02:00.942Z,5.80
2023-03-29T09:04:35.949Z,8.00
2023-03-29T09:07:08.977Z,7.20
2023-03-29T09:09:37.708Z,4.70
2023-03-29T09:12:17.141Z,5.60
2023-03-29T09:15:06.726Z,4.90
2023-03-29T09:18:06.298Z,6.30
2023-03-29T09:21:07.491Z,7.80
2023-03-29T09:24:05.444Z,7.60
2023-03-29T09:26:40.943Z,6.20
2023-03-29T09:29:52.560Z,5.00
2023-03-29T09:32:33.508Z,9.00
2023-03-29T09:35:18.392Z,7.80
2023-03-29T09:37:50.516Z,8.30
2023-03-29T09:40:29.907Z,4.50
2023-03-29T09:43:01.852Z,6.70
2023-03-29T09:45:30.033Z,6.10
2023-03-29T09:48:13.465Z,6.60
2023-03-29T09:50:48.508Z,7.40
2023-03-29T09:53:16.895Z,7.60
2023-03-29T09:55:50.310Z,5.30
2023-03-29T09:58:28.034Z,6.10
2023-03-29T10:01:10.402Z,5.70
2023-03-29T10:03:40.027Z,3.70
2023-03-29T10:06:12.266Z,5.20
2023-03-29T10:08:55.011Z,9.10
2023-03-29T10:11:31.411Z,6.20
2023-03-29T10:14:05.653Z,4.40
2023-03-29T10:16:42.147Z,5.40
2023-03-29T10:19:35.594Z,5.80
2023-03-29T10:22:21.924Z,7.00
2023-03-29T10:24:53.040Z,5.80
2023-03-29T10:27:27.001Z,4.40
2023-03-29T10:29:58.230Z,6.20
2023-03-29T10:32:36.783Z,6.70
2023-03-29T10:35:41.933Z,5.80
2023-03-29T10:38:17.641Z,7.30
2023-03-29T10:40:51.887Z,4.50
2023-03-29T10:43:22.012Z,5.60
2023-03-29T10:45:54.482Z,5.30
2023-03-29T10:48:31.197Z,5.50
2023-03-29T10:51:02.926Z,2.50
2023-03-29T10:53:35.134Z,5.30
2023-03-29T10:56:40.574Z,5.20
2023-03-29T10:59:27.409Z,5.30
2023-03-29T11:02:44.074Z,3.90
2023-03-29T11:05:29.458Z,3.60
2023-03-29T11:08:42.153Z,3.60
2023-03-29T11:11:27.683Z,5.50
2023-03-29T11:14:14.214Z,5.90
2023-03-29T11:16:53.158Z,4.30
2023-03-29T11:19:44.822Z,5.20
2023-03-29T11:22:50.017Z,3.50
2023-03-29T11:25:44.249Z,4.20
2023-03-29T11:28:28.626Z,4.50
2023-03-29T11:31:16.235Z,4.30
2023-03-29T11:34:18.662Z,4.60
2023-03-29T11:37:13.734Z,3.90
2023-03-29T11:40:07.076Z,4.20
2023-03-29T11:42:44.916Z,7.20
2023-03-29T11:45:22.767Z,4.20
2023-03-29T11:47:53.422Z,4.10
2023-03-29T11:50:32.204Z,4.60
2023-03-29T11:53:17.811Z,5.40
2023-03-29T11:55:47.295Z,4.50
2023-03-29T11:58:32.722Z,4.30
2023-03-29T12:01:12.986Z,3.10
2023-03-29T12:03:54.601Z,3.20
2023-03-29T12:06:31.918Z,2.80
2023-03-29T12:09:14.215Z,4.00
2023-03-29T12:11:57.611Z,3.10
2023-03-29T12:14:51.811Z,3.60
2023-03-29T12:17:31.045Z,5.40
2023-03-29T12:20:17.937Z,7.20
2023-03-29T12:22:49.123Z,4.40
2023-03-29T12:25:27.430Z,3.90
2023-03-29T12:28:46.709Z,5.80
2023-03-29T12:31:32.872Z,5.60
2023-03-29T12:34:42.247Z,4.60
2023-03-29T12:37:44.830Z,4.90
2023-03-29T12:40:20.377Z,4.60
2023-03-29T12:42:54.321Z,5.20
2023-03-29T12:45:48.618Z,6.70
2023-03-29T12:48:22.298Z,6.30
2023-03-29T12:50:54.103Z,6.30
2023-03-29T12:53:49.042Z,5.80
2023-03-29T12:56:23.615Z,5.90
2023-03-29T12:59:37.772Z,4.20
2023-03-29T13:02:14.332Z,3.50
2023-03-29T13:05:01.203Z,5.80
2023-03-29T13:07:45.637Z,5.00
2023-03-29T13:10:39.399Z,5.60
2023-03-29T13:13:28.038Z,5.50
2023-03-29T13:15:56.995Z,5.40
2023-03-29T13:19:06.641Z,3.50
2023-03-29T13:21:50.779Z,5.50
2023-03-29T13:24:54.288Z,6.10
2023-03-29T13:27:30.391Z,4.90
2023-03-29T13:30:20.143Z,6.40
2023-03-29T13:33:25.193Z,6.60
2023-03-29T13:36:30.204Z,7.10
2023-03-29T13:39:07.058Z,5.20
2023-03-29T13:41:41.446Z,4.50
2023-03-29T13:44:45.615Z,6.00
2023-03-29T13:47:25.828Z,4.20
2023-03-29T13:49:59.351Z,7.40
2023-03-29T13:53:28.106Z,4.80
2023-03-29T13:55:59.442Z,6.50
2023-03-29T13:58:51.686Z,4.20
2023-03-29T14:01:36.597Z,5.40
2023-03-29T14:04:08.419Z,6.10
2023-03-29T14:06:38.670Z,5.40
2023-03-29T14:09:09.019Z,5.50
2023-03-29T14:11:37.006Z,5.20
2023-03-29T14:14:08.315Z,6.10
2023-03-29T14:16:39.974Z,7.40
2023-03-29T14:19:15.455Z,6.70
2023-03-29T14:21:44.772Z,8.10
2023-03-29T14:24:23.232Z,6.30
2023-03-29T14:26:54.066Z,7.20
2023-03-29T14:29:24.259Z,5.20
2023-03-29T14:31:53.336Z,4.90
2023-03-29T14:34:23.080Z,4.40
2023-03-29T14:36:54.110Z,6.20
2023-03-29T14:39:23.552Z,6.80
2023-03-29T14:41:57.300Z,7.20
2023-03-29T14:44:34.666Z,5.20
2023-03-29T14:47:03.526Z,7.50
2023-03-29T14:49:32.373Z,7.80
2023-03-29T14:52:00.429Z,6.40
2023-03-29T14:54:34.279Z,10.20
2023-03-29T14:57:08.266Z,5.10
2023-03-29T14:59:40.916Z,9.30
2023-03-29T15:02:28.896Z,8.90
2023-03-29T15:05:04.691Z,7.60
2023-03-29T15:07:36.881Z,8.00
2023-03-29T15:10:06.646Z,8.80
2023-03-29T15:12:43.262Z,6.60
2023-03-29T15:15:13.727Z,6.30
2023-03-29T15:17:52.385Z,7.00
2023-03-29T15:20:33.579Z,6.70
2023-03-29T15:23:24.506Z,6.10
2023-03-29T15:25:59.642Z,7.70
2023-03-29T15:28:35.455Z,6.20
2023-03-29T15:31:12.220Z,6.10
2023-03-29T15:33:41.866Z,13.40
2023-03-29T15:36:14.016Z,10.20
2023-03-29T15:38:44.934Z,9.50
2023-03-29T15:41:14.642Z,8.90
2023-03-29T15:43:43.130Z,7.50
2023-03-29T15:46:13.942Z,9.80
2023-03-29T15:48:42.629Z,9.10
2023-03-29T15:51:14.918Z,10.00
2023-03-29T15:53:42.710Z,13.40
2023-03-29T15:56:18.744Z,12.30
2023-03-29T15:58:47.609Z,13.00
2023-03-29T16:01:37.574Z,10.60
2023-03-29T16:04:12.023Z,11.60
2023-03-29T16:06:41.116Z,8.80
2023-03-29T16:09:11.861Z,8.20
2023-03-29T16:11:42.366Z,6.20
2023-03-29T16:14:24.115Z,7.00
2023-03-29T16:16:53.090Z,6.90
2023-03-29T16:19:22.088Z,13.90
2023-03-29T16:21:50.356Z,8.50
2023-03-29T16:24:25.759Z,11.20
2023-03-29T16:26:56.030Z,9.40
2023-03-29T16:29:25.373Z,8.30
2023-03-29T16:31:53.955Z,7.80
2023-03-29T16:34:22.939Z,9.20
2023-03-29T16:36:51.183Z,11.20
2023-03-29T16:39:18.874Z,9.30
2023-03-29T16:41:49.041Z,8.60
2023-03-29T16:44:22.992Z,12.00
2023-03-29T16:46:57.467Z,15.40
2023-03-29T16:49:25.349Z,24.10
2023-03-29T16:51:53.086Z,19.60
2023-03-29T16:54:21.199Z,25.70
2023-03-29T16:56:49.005Z,20.00
2023-03-29T16:59:16.802Z,15.50
2023-03-29T17:01:44.660Z,11.70
2023-03-29T17:04:12.654Z,12.90
2023-03-29T17:06:40.850Z,15.40
2023-03-29T17:09:09.686Z,16.50
2023-03-29T17:11:37.401Z,16.30
2023-03-29T17:14:05.155Z,13.80
2023-03-29T17:16:32.930Z,19.70
2023-03-29T17:19:00.906Z,19.30
2023-03-29T17:21:29.615Z,16.30
2023-03-29T17:23:57.450Z,16.20
2023-03-29T17:26:26.067Z,12.10
2023-03-29T17:28:53.901Z,15.40
2023-03-29T17:31:21.815Z,10.30
2023-03-29T17:33:52.191Z,11.80
2023-03-29T17:36:24.140Z,10.40
2023-03-29T17:38:52.026Z,9.40
2023-03-29T17:41:19.732Z,11.80
2023-03-29T17:43:48.112Z,9.60
2023-03-29T17:46:16.868Z,10.60
2023-03-29T17:48:46.158Z,11.40
2023-03-29T17:51:14.000Z,9.40
2023-03-29T17:53:41.983Z,14.50
2023-03-29T17:56:09.940Z,14.30
2023-03-29T17:58:37.920Z,18.30
2023-03-29T18:01:11.316Z,27.00
2023-03-29T18:03:39.522Z,25.90
2023-03-29T18:06:08.243Z,21.90
2023-03-29T18:08:36.163Z,15.40
2023-03-29T18:11:22.904Z,15.90
2023-03-29T18:13:52.865Z,16.40
2023-03-29T18:16:22.847Z,17.50
2023-03-29T18:18:51.497Z,11.80
2023-03-29T18:21:20.165Z,16.40
2023-03-29T18:23:49.877Z,15.10
2023-03-29T18:26:17.723Z,11.90
2023-03-29T18:28:47.211Z,11.90
2023-03-29T18:31:16.012Z,13.60
2023-03-29T18:33:44.214Z,20.30
2023-03-29T18:36:13.310Z,24.00
2023-03-29T18:38:43.598Z,20.70
2023-03-29T18:41:13.925Z,17.80
2023-03-29T18:43:43.199Z,19.00
2023-03-29T18:46:11.337Z,17.60
2023-03-29T18:48:39.340Z,25.10
2023-03-29T18:51:10.040Z,19.30
2023-03-29T18:53:41.558Z,21.50
2023-03-29T18:56:09.961Z,23.80
2023-03-29T18:58:37.964Z,23.00
2023-03-29T19:01:07.324Z,18.50
2023-03-29T19:03:36.328Z,16.60
2023-03-29T19:06:04.782Z,17.10
2023-03-29T19:08:34.510Z,22.00
2023-03-29T19:11:05.735Z,26.40
2023-03-29T19:13:34.557Z,19.00
2023-03-29T19:16:02.883Z,18.90
2023-03-29T19:18:31.023Z,23.60
2023-03-29T19:20:58.754Z,19.20
2023-03-29T19:23:28.325Z,24.80
2023-03-29T19:26:00.204Z,23.40
2023-03-29T19:28:28.499Z,12.80
2023-03-29T19:30:59.743Z,20.70
2023-03-29T19:33:28.259Z,20.30
2023-03-29T19:35:56.677Z,22.90
2023-03-29T19:38:24.683Z,17.00
2023-03-29T19:40:52.497Z,17.60
2023-03-29T19:43:20.926Z,17.90
2023-03-29T19:45:51.068Z,20.30
2023-03-29T19:48:23.832Z,18.60
2023-03-29T19:50:52.322Z,16.70
2023-03-29T19:53:19.908Z,17.30
2023-03-29T19:55:48.722Z,16.40
2023-03-29T19:58:16.462Z,17.40
2023-03-29T20:00:44.210Z,10.20
2023-03-29T20:03:14.018Z,11.20
2023-03-29T20:05:41.868Z,11.50
2023-03-29T20:08:09.801Z,12.80
2023-03-29T20:10:37.611Z,12.20
2023-03-29T20:13:06.617Z,14.00
2023-03-29T20:15:35.095Z,12.10
2023-03-29T20:18:03.438Z,11.20
2023-03-29T20:20:31.865Z,11.70
2023-03-29T20:23:04.687Z,13.60
2023-03-29T20:25:35.630Z,14.60
2023-03-29T20:28:04.813Z,16.90
2023-03-29T20:30:32.739Z,19.30
2023-03-29T20:33:00.934Z,14.10
2023-03-29T20:35:28.592Z,13.60
2023-03-29T20:37:56.363Z,13.10
2023-03-29T20:40:24.829Z,15.20
2023-03-29T20:42:54.115Z,14.40
2023-03-29T20:45:21.931Z,16.20
2023-03-29T20:48:02.263Z,13.50
2023-03-29T20:50:30.181Z,15.40
2023-03-29T20:53:03.635Z,13.00
2023-03-29T20:55:33.253Z,11.40
2023-03-29T20:58:02.157Z,10.50
2023-03-29T21:00:33.455Z,13.60
2023-03-29T21:03:03.858Z,10.80
2023-03-29T21:05:34.005Z,8.20
2023-03-29T21:08:02.470Z,9.20
2023-03-29T21:10:30.940Z,9.70
2023-03-29T21:13:01.230Z,11.10
2023-03-29T21:15:30.848Z,11.50
2023-03-29T21:17:58.896Z,29.40
2023-03-29T21:20:27.684Z,25.80
2023-03-29T21:22:55.553Z,57.30
2023-03-29T21:25:23.266Z,36.20
2023-03-29T21:27:51.206Z,31.40
2023-03-29T21:30:18.880Z,24.50
2023-03-29T21:32:47.088Z,21.40
2023-03-29T21:35:14.736Z,15.70
2023-03-29T21:37:42.404Z,14.20
2023-03-29T21:40:12.401Z,17.50
2023-03-29T21:42:40.094Z,11.70
2023-03-29T21:45:09.074Z,11.50
2023-03-29T21:47:36.806Z,12.80
2023-03-29T21:50:05.491Z,10.50
2023-03-29T21:52:33.141Z,10.80
2023-03-29T21:55:00.788Z,9.50
2023-03-29T21:57:28.408Z,9.00
2023-03-29T21:59:56.829Z,10.10
2023-03-29T22:02:24.553Z,6.20
2023-03-29T22:04:52.523Z,8.50
2023-03-29T22:07:22.786Z,10.70
2023-03-29T22:09:50.688Z,7.60
2023-03-29T22:12:18.734Z,8.60
2023-03-29T22:14:46.501Z,8.90
2023-03-29T22:17:15.956Z,10.60
2023-03-29T22:19:43.680Z,9.40
2023-03-29T22:22:14.892Z,9.20
2023-03-29T22:24:42.675Z,11.90
2023-03-29T22:27:11.697Z,10.30
2023-03-29T22:29:39.323Z,8.30
2023-03-29T22:32:07.005Z,8.20
2023-03-29T22:34:34.900Z,9.90
2023-03-29T22:37:02.519Z,8.30
2023-03-29T22:39:30.243Z,7.30
2023-03-29T22:41:58.003Z,10.20
2023-03-29T22:44:25.708Z,7.90
2023-03-29T22:46:53.358Z,6.70
2023-03-29T22:49:21.107Z,7.10
2023-03-29T22:51:48.827Z,8.20
2023-03-29T22:54:16.412Z,8.00
2023-03-29T22:56:44.117Z,10.80
2023-03-29T22:59:11.824Z,7.50
2023-03-29T23:01:39.577Z,8.90
2023-03-29T23:04:07.326Z,9.50
2023-03-29T23:06:34.995Z,7.80
2023-03-29T23:09:03.454Z,9.30
2023-03-29T23:11:31.257Z,8.50
2023-03-29T23:13:59.317Z,6.30
2023-03-29T23:16:27.033Z,6.70
2023-03-29T23:18:54.793Z,6.00
2023-03-29T23:21:23.191Z,5.90
2023-03-29T23:23:51.235Z,8.30
2023-03-29T23:26:18.973Z,6.40
2023-03-29T23:28:46.599Z,7.90
2023-03-29T23:31:18.661Z,9.80
2023-03-29T23:33:46.945Z,7.60
2023-03-29T23:36:18.179Z,9.30
2023-03-29T23:38:47.810Z,6.80
2023-03-29T23:41:17.694Z,6.80
2023-03-29T23:43:47.460Z,7.80
2023-03-29T23:46:18.982Z,7.70
2023-03-29T23:48:49.120Z,5.30
2023-03-29T23:51:22.729Z,6.50
2023-03-29T23:53:50.800Z,6.50
2023-03-29T23:56:18.694Z,7.20
2023-03-29T23:58:46.851Z,6.50
